createdAt,value
2022-09-14T00:00:24.488Z,18.30
2022-09-14T00:03:10.655Z,18.30
2022-09-14T00:05:56.769Z,18.30
2022-09-14T00:08:43.523Z,18.20
2022-09-14T00:11:32.187Z,18.10
2022-09-14T00:14:19.573Z,18.00
2022-09-14T00:17:05.787Z,18.00
2022-09-14T00:19:53.673Z,18.00
2022-09-14T00:22:39.918Z,18.00
2022-09-14T00:25:26.418Z,18.00
2022-09-14T00:28:12.346Z,18.00
2022-09-14T00:30:58.266Z,18.10
2022-09-14T00:33:47.306Z,18.10
2022-09-14T00:36:37.553Z,18.10
2022-09-14T00:39:24.270Z,18.00
2022-09-14T00:42:16.484Z,17.90
2022-09-14T00:45:08.229Z,17.90
2022-09-14T00:47:56.696Z,18.00
2022-09-14T00:50:42.616Z,18.00
2022-09-14T00:53:28.722Z,18.10
2022-09-14T00:56:15.412Z,18.10
2022-09-14T00:59:09.255Z,18.10
2022-09-14T01:01:55.430Z,18.10
2022-09-14T01:04:43.422Z,18.10
2022-09-14T01:07:47.591Z,18.20
2022-09-14T01:10:59.031Z,18.10
2022-09-14T01:14:11.954Z,18.10
2022-09-14T01:17:09.157Z,18.10
2022-09-14T01:20:16.357Z,18.00
2022-09-14T01:23:24.559Z,18.00
2022-09-14T01:26:29.281Z,17.90
2022-09-14T01:29:26.617Z,17.90
2022-09-14T01:32:15.672Z,18.00
2022-09-14T01:35:16.146Z,18.00
2022-09-14T01:38:14.704Z,18.10
2022-09-14T01:41:04.344Z,18.00
2022-09-14T01:43:56.414Z,18.00
2022-09-14T01:46:50.653Z,17.80
2022-09-14T01:49:45.886Z,17.80
2022-09-14T01:52:43.100Z,17.90
2022-09-14T01:55:39.753Z,17.90
2022-09-14T01:58:32.886Z,18.00
2022-09-14T02:01:30.471Z,18.00
2022-09-14T02:04:36.453Z,18.10
2022-09-14T02:07:23.874Z,18.20
2022-09-14T02:10:12.524Z,18.20
2022-09-14T02:12:58.861Z,18.20
2022-09-14T02:15:45.162Z,18.20
2022-09-14T02:18:31.867Z,18.20
2022-09-14T02:21:22.938Z,18.10
2022-09-14T02:24:10.338Z,18.20
2022-09-14T02:26:58.104Z,18.10
2022-09-14T02:29:45.056Z,18.10
2022-09-14T02:32:36.863Z,18.10
2022-09-14T02:35:39.744Z,18.10
2022-09-14T02:38:35.834Z,18.10
2022-09-14T02:41:59.721Z,17.90
2022-09-14T02:44:55.888Z,17.80
2022-09-14T02:48:01.359Z,17.80
2022-09-14T02:51:33.365Z,17.80
2022-09-14T02:54:24.314Z,17.80
2022-09-14T02:57:10.849Z,17.80
2022-09-14T02:59:57.070Z,17.80
2022-09-14T03:02:42.998Z,17.80
2022-09-14T03:05:29.010Z,17.90
2022-09-14T03:08:15.419Z,18.00
2022-09-14T03:11:02.040Z,18.00
2022-09-14T03:13:48.228Z,18.10
2022-09-14T03:16:34.328Z,18.10
2022-09-14T03:19:20.365Z,18.10
2022-09-14T03:22:06.386Z,18.10
2022-09-14T03:24:52.193Z,18.10
2022-09-14T03:27:38.113Z,18.00
2022-09-14T03:30:24.854Z,18.00
2022-09-14T03:33:10.928Z,18.00
2022-09-14T03:35:57.498Z,17.90
2022-09-14T03:38:49.297Z,17.90
2022-09-14T03:41:35.320Z,17.90
2022-09-14T03:44:21.250Z,17.80
2022-09-14T03:47:08.505Z,17.80
2022-09-14T03:49:54.785Z,17.80
2022-09-14T03:52:41.133Z,17.80
2022-09-14T03:55:27.249Z,17.80
2022-09-14T03:58:13.064Z,17.80
2022-09-14T04:01:08.045Z,17.70
2022-09-14T04:03:54.158Z,17.70
2022-09-14T04:06:40.315Z,17.70
2022-09-14T04:09:26.665Z,17.60
2022-09-14T04:12:12.982Z,17.60
2022-09-14T04:14:58.999Z,17.70
2022-09-14T04:17:45.014Z,17.70
2022-09-14T04:20:31.013Z,17.70
2022-09-14T04:23:17.096Z,17.70
2022-09-14T04:26:18.562Z,17.70
2022-09-14T04:29:04.492Z,17.80
2022-09-14T04:31:50.493Z,17.90
2022-09-14T04:34:36.322Z,17.90
2022-09-14T04:37:22.306Z,17.90
2022-09-14T04:40:08.824Z,18.00
2022-09-14T04:42:54.709Z,18.00
2022-09-14T04:45:40.921Z,18.00
2022-09-14T04:48:27.117Z,18.00
2022-09-14T04:51:21.624Z,18.00
2022-09-14T04:54:07.781Z,18.00
2022-09-14T04:56:53.986Z,18.00
2022-09-14T04:59:40.384Z,18.00
2022-09-14T05:02:26.995Z,18.00
2022-09-14T05:05:13.017Z,18.10
2022-09-14T05:07:58.997Z,18.00
2022-09-14T05:10:45.009Z,18.00
2022-09-14T05:13:31.097Z,18.00
2022-09-14T05:16:26.274Z,18.10
2022-09-14T05:19:15.257Z,18.10
2022-09-14T05:22:01.427Z,18.10
2022-09-14T05:24:47.382Z,18.10
2022-09-14T05:27:33.586Z,18.20
2022-09-14T05:30:19.719Z,18.30
2022-09-14T05:33:05.529Z,18.30
2022-09-14T05:35:52.346Z,18.30
2022-09-14T05:38:38.867Z,18.30
2022-09-14T05:41:24.991Z,18.40
2022-09-14T05:44:11.180Z,18.40
2022-09-14T05:46:57.157Z,18.40
2022-09-14T05:49:43.248Z,18.40
2022-09-14T05:52:29.922Z,18.50
2022-09-14T05:55:15.884Z,18.50
2022-09-14T05:58:02.230Z,18.60
2022-09-14T06:00:48.426Z,18.70
2022-09-14T06:03:34.965Z,18.80
2022-09-14T06:06:21.737Z,18.90
2022-09-14T06:09:07.667Z,19.00
2022-09-14T06:11:53.544Z,19.10
2022-09-14T06:14:40.756Z,19.10
2022-09-14T06:17:29.247Z,19.10
2022-09-14T06:20:15.701Z,19.20
2022-09-14T06:23:01.720Z,19.20
2022-09-14T06:25:47.596Z,19.20
2022-09-14T06:28:34.516Z,19.20
2022-09-14T06:31:22.632Z,19.20
2022-09-14T06:34:08.432Z,19.20
2022-09-14T06:36:54.275Z,19.20
2022-09-14T06:39:40.129Z,19.30
2022-09-14T06:42:25.861Z,19.40
2022-09-14T06:45:11.857Z,19.50
2022-09-14T06:47:58.061Z,19.60
2022-09-14T06:50:44.338Z,19.70
2022-09-14T06:53:30.433Z,19.70
2022-09-14T06:56:16.989Z,19.80
2022-09-14T06:59:05.076Z,19.80
2022-09-14T07:01:51.526Z,19.90
2022-09-14T07:04:37.425Z,19.90
2022-09-14T07:07:23.534Z,20.00
2022-09-14T07:10:11.659Z,20.00
2022-09-14T07:13:01.037Z,20.10
2022-09-14T07:15:50.600Z,20.10
2022-09-14T07:18:37.205Z,20.20
2022-09-14T07:21:23.788Z,20.20
2022-09-14T07:24:12.437Z,20.20
2022-09-14T07:26:58.516Z,20.30
2022-09-14T07:29:44.704Z,20.30
2022-09-14T07:32:30.578Z,20.30
2022-09-14T07:35:16.468Z,20.40
2022-09-14T07:38:02.496Z,20.40
2022-09-14T07:40:48.523Z,20.50
2022-09-14T07:43:35.007Z,20.60
2022-09-14T07:46:22.531Z,20.80
2022-09-14T07:49:09.618Z,20.90
2022-09-14T07:51:55.792Z,21.10
2022-09-14T07:54:41.882Z,21.20
2022-09-14T07:57:45.713Z,21.40
2022-09-14T08:00:34.113Z,21.40
2022-09-14T08:03:20.040Z,21.60
2022-09-14T08:06:08.792Z,21.60
2022-09-14T08:08:55.570Z,21.70
2022-09-14T08:11:41.925Z,21.80
2022-09-14T08:14:28.014Z,21.90
2022-09-14T08:17:14.001Z,21.90
2022-09-14T08:20:00.078Z,22.10
2022-09-14T08:22:45.992Z,22.10
2022-09-14T08:25:32.022Z,22.20
2022-09-14T08:28:18.052Z,22.30
2022-09-14T08:31:08.909Z,22.30
2022-09-14T08:34:00.606Z,22.40
2022-09-14T08:36:48.042Z,22.40
2022-09-14T08:39:34.358Z,22.50
2022-09-14T08:42:23.005Z,22.70
2022-09-14T08:45:15.169Z,22.70
2022-09-14T08:48:02.868Z,22.80
2022-09-14T08:50:53.875Z,23.00
2022-09-14T08:53:41.754Z,23.10
2022-09-14T08:56:38.189Z,23.20
2022-09-14T08:59:32.100Z,23.30
2022-09-14T09:02:30.990Z,23.40
2022-09-14T09:05:25.626Z,23.50
2022-09-14T09:08:32.786Z,23.60
2022-09-14T09:11:21.049Z,23.70
2022-09-14T09:14:18.512Z,23.80
2022-09-14T09:17:15.773Z,23.90
2022-09-14T09:20:14.273Z,24.10
2022-09-14T09:23:14.147Z,24.20
2022-09-14T09:26:10.120Z,24.40
2022-09-14T09:29:03.941Z,24.50
2022-09-14T09:32:15.294Z,24.60
2022-09-14T09:35:22.914Z,24.70
2022-09-14T09:38:26.445Z,24.80
2022-09-14T09:41:44.586Z,24.80
2022-09-14T09:44:57.994Z,24.70
2022-09-14T09:47:47.090Z,24.60
2022-09-14T09:50:33.118Z,24.50
2022-09-14T09:53:22.733Z,24.50
2022-09-14T09:56:17.789Z,24.40
2022-09-14T09:59:21.113Z,24.40
2022-09-14T10:02:23.086Z,24.30
2022-09-14T10:05:09.740Z,24.40
2022-09-14T10:08:01.060Z,24.40
2022-09-14T10:10:47.466Z,24.40
2022-09-14T10:13:38.926Z,24.50
2022-09-14T10:16:30.066Z,24.60
2022-09-14T10:19:26.041Z,24.70
2022-09-14T10:22:34.892Z,25.00
2022-09-14T10:25:25.145Z,25.30
2022-09-14T10:28:30.417Z,25.70
2022-09-14T10:31:20.809Z,26.00
2022-09-14T10:34:19.309Z,25.80
2022-09-14T10:37:35.917Z,25.80
2022-09-14T10:40:38.205Z,25.60
2022-09-14T10:43:59.548Z,25.50
2022-09-14T10:46:54.642Z,25.40
2022-09-14T10:50:04.557Z,25.30
2022-09-14T10:53:03.288Z,25.20
2022-09-14T10:56:11.318Z,25.20
2022-09-14T10:59:09.470Z,25.30
2022-09-14T11:02:14.620Z,25.40
2022-09-14T11:05:12.923Z,25.70
2022-09-14T11:08:20.597Z,25.80
2022-09-14T11:11:19.469Z,25.80
2022-09-14T11:14:17.284Z,25.80
2022-09-14T11:17:37.117Z,25.60
2022-09-14T11:20:26.891Z,25.30
2022-09-14T11:23:37.956Z,25.10
2022-09-14T11:26:34.336Z,24.90
2022-09-14T11:29:34.224Z,24.80
2022-09-14T11:32:33.484Z,24.70
2022-09-14T11:35:24.454Z,24.60
2022-09-14T11:38:35.272Z,24.60
2022-09-14T11:41:49.831Z,24.60
2022-09-14T11:44:39.334Z,24.90
2022-09-14T11:47:26.246Z,25.20
2022-09-14T11:50:28.283Z,25.30
2022-09-14T11:53:16.034Z,25.10
2022-09-14T11:56:02.478Z,25.30
2022-09-14T11:58:49.336Z,25.30
2022-09-14T12:01:41.500Z,25.40
2022-09-14T12:04:28.002Z,25.60
2022-09-14T12:07:42.195Z,25.90
2022-09-14T12:10:29.500Z,26.10
2022-09-14T12:13:20.545Z,26.20
2022-09-14T12:16:10.434Z,26.30
2022-09-14T12:18:56.823Z,26.30
2022-09-14T12:21:43.018Z,26.20
2022-09-14T12:24:30.051Z,26.20
2022-09-14T12:27:22.231Z,26.20
2022-09-14T12:30:42.723Z,26.10
2022-09-14T12:33:32.256Z,26.10
2022-09-14T12:36:21.585Z,26.00
2022-09-14T12:39:25.137Z,26.00
2022-09-14T12:42:32.211Z,25.90
2022-09-14T12:45:51.477Z,25.90
2022-09-14T12:48:54.307Z,25.90
2022-09-14T12:51:48.261Z,25.90
2022-09-14T12:55:12.270Z,25.90
2022-09-14T12:58:21.134Z,25.80
2022-09-14T13:01:25.861Z,25.70
2022-09-14T13:04:16.930Z,25.70
2022-09-14T13:07:12.885Z,25.60
2022-09-14T13:10:00.472Z,25.50
2022-09-14T13:12:48.226Z,25.40
2022-09-14T13:15:39.009Z,25.30
2022-09-14T13:18:37.629Z,25.20
2022-09-14T13:21:24.974Z,25.20
2022-09-14T13:24:44.545Z,25.20
2022-09-14T13:27:33.829Z,25.10
2022-09-14T13:30:24.746Z,25.10
2022-09-14T13:33:17.151Z,25.20
2022-09-14T13:36:04.182Z,25.10
2022-09-14T13:38:51.202Z,25.10
2022-09-14T13:41:43.645Z,25.00
2022-09-14T13:44:45.143Z,25.00
2022-09-14T13:47:31.613Z,25.00
2022-09-14T13:50:18.091Z,24.90
2022-09-14T13:53:04.757Z,24.90
2022-09-14T13:55:50.858Z,24.90
2022-09-14T13:58:36.823Z,24.80
2022-09-14T14:01:26.743Z,24.80
2022-09-14T14:04:24.633Z,24.60
2022-09-14T14:07:20.037Z,24.60
2022-09-14T14:10:06.249Z,24.50
2022-09-14T14:12:52.375Z,24.40
2022-09-14T14:15:40.184Z,24.40
2022-09-14T14:18:35.511Z,24.30
2022-09-14T14:21:30.229Z,24.30
2022-09-14T14:24:30.537Z,24.20
2022-09-14T14:27:28.416Z,24.10
2022-09-14T14:30:20.005Z,24.10
2022-09-14T14:33:11.145Z,24.00
2022-09-14T14:35:57.093Z,24.10
2022-09-14T14:38:44.213Z,24.00
2022-09-14T14:41:30.186Z,24.00
2022-09-14T14:44:28.379Z,24.00
2022-09-14T14:47:15.617Z,24.00
2022-09-14T14:50:03.848Z,23.90
2022-09-14T14:52:51.571Z,23.90
2022-09-14T14:55:37.648Z,23.90
2022-09-14T14:58:24.401Z,23.90
2022-09-14T15:01:10.527Z,23.90
2022-09-14T15:03:56.675Z,23.90
2022-09-14T15:06:43.297Z,23.90
2022-09-14T15:09:30.092Z,23.90
2022-09-14T15:12:16.249Z,23.90
2022-09-14T15:15:02.794Z,23.80
2022-09-14T15:17:50.496Z,23.60
2022-09-14T15:20:36.796Z,23.50
2022-09-14T15:23:22.838Z,23.30
2022-09-14T15:26:08.614Z,23.10
2022-09-14T15:28:54.537Z,22.80
2022-09-14T15:31:40.967Z,22.60
2022-09-14T15:34:27.024Z,22.40
2022-09-14T15:37:13.283Z,22.10
2022-09-14T15:39:59.948Z,22.00
2022-09-14T15:42:46.270Z,21.80
2022-09-14T15:45:32.272Z,21.80
2022-09-14T15:48:18.794Z,21.70
2022-09-14T15:51:09.526Z,21.60
2022-09-14T15:53:56.034Z,21.50
2022-09-14T15:56:42.053Z,21.30
2022-09-14T15:59:28.626Z,21.10
2022-09-14T16:02:16.935Z,20.80
2022-09-14T16:05:03.429Z,20.20
2022-09-14T16:07:53.531Z,19.70
2022-09-14T16:10:39.338Z,19.30
2022-09-14T16:13:25.378Z,19.00
2022-09-14T16:16:14.014Z,18.80
2022-09-14T16:19:12.516Z,18.80
2022-09-14T16:21:59.296Z,18.80
2022-09-14T16:24:45.457Z,18.70
2022-09-14T16:27:31.377Z,18.60
2022-09-14T16:30:17.569Z,18.60
2022-09-14T16:33:03.804Z,18.60
2022-09-14T16:35:49.741Z,18.50
2022-09-14T16:38:36.671Z,18.50
2022-09-14T16:41:23.056Z,18.50
2022-09-14T16:44:17.371Z,18.50
2022-09-14T16:47:03.678Z,18.60
2022-09-14T16:49:49.802Z,18.60
2022-09-14T16:52:35.756Z,18.60
2022-09-14T16:55:21.710Z,18.60
2022-09-14T16:58:07.621Z,18.60
2022-09-14T17:00:53.644Z,18.60
2022-09-14T17:03:40.777Z,18.60
2022-09-14T17:06:32.955Z,18.60
2022-09-14T17:09:27.914Z,18.60
2022-09-14T17:12:13.794Z,18.60
2022-09-14T17:14:59.763Z,18.60
2022-09-14T17:17:45.795Z,18.60
2022-09-14T17:20:31.747Z,18.60
2022-09-14T17:23:17.577Z,18.50
2022-09-14T17:26:08.883Z,18.50
2022-09-14T17:28:56.840Z,18.50
2022-09-14T17:31:43.990Z,18.50
2022-09-14T17:34:31.209Z,18.50
2022-09-14T17:37:17.549Z,18.50
2022-09-14T17:40:05.155Z,18.40
2022-09-14T17:42:52.074Z,18.40
2022-09-14T17:45:39.288Z,18.40
2022-09-14T17:48:27.774Z,18.40
2022-09-14T17:51:20.328Z,18.40
2022-09-14T17:54:07.213Z,18.40
2022-09-14T17:56:53.402Z,18.40
2022-09-14T17:59:39.457Z,18.40
2022-09-14T18:02:25.668Z,18.50
2022-09-14T18:05:12.029Z,18.40
2022-09-14T18:07:58.848Z,18.40
2022-09-14T18:10:45.168Z,18.40
2022-09-14T18:13:31.170Z,18.40
2022-09-14T18:16:18.605Z,18.40
2022-09-14T18:19:04.921Z,18.50
2022-09-14T18:21:52.789Z,18.50
2022-09-14T18:24:38.973Z,18.50
2022-09-14T18:27:25.536Z,18.50
2022-09-14T18:30:12.448Z,18.50
2022-09-14T18:32:59.465Z,18.50
2022-09-14T18:35:45.361Z,18.50
2022-09-14T18:38:31.686Z,18.50
2022-09-14T18:41:18.420Z,18.50
2022-09-14T18:44:05.675Z,18.40
2022-09-14T18:46:51.918Z,18.40
2022-09-14T18:49:38.153Z,18.40
2022-09-14T18:52:24.249Z,18.40
2022-09-14T18:55:10.850Z,18.40
2022-09-14T18:57:57.518Z,18.40
2022-09-14T19:00:47.262Z,18.40
2022-09-14T19:03:34.093Z,18.40
2022-09-14T19:06:20.248Z,18.40
2022-09-14T19:09:07.556Z,18.40
2022-09-14T19:11:53.572Z,18.40
2022-09-14T19:14:39.732Z,18.40
2022-09-14T19:17:25.669Z,18.40
2022-09-14T19:20:11.707Z,18.40
2022-09-14T19:22:58.411Z,18.40
2022-09-14T19:25:45.038Z,18.30
2022-09-14T19:28:31.201Z,18.40
2022-09-14T19:31:20.302Z,18.50
2022-09-14T19:34:06.747Z,18.50
2022-09-14T19:36:53.888Z,18.60
2022-09-14T19:39:42.199Z,18.50
2022-09-14T19:42:28.976Z,18.50
2022-09-14T19:45:16.478Z,18.50
2022-09-14T19:48:03.656Z,18.50
2022-09-14T19:50:50.298Z,18.50
2022-09-14T19:53:37.276Z,18.50
2022-09-14T19:56:25.839Z,18.40
2022-09-14T19:59:12.628Z,18.40
2022-09-14T20:01:59.537Z,18.30
2022-09-14T20:04:45.656Z,18.20
2022-09-14T20:07:31.797Z,18.10
2022-09-14T20:10:18.367Z,18.00
2022-09-14T20:13:04.359Z,17.80
2022-09-14T20:15:51.225Z,17.70
2022-09-14T20:18:37.150Z,17.60
2022-09-14T20:21:25.066Z,17.60
2022-09-14T20:24:18.348Z,17.60
2022-09-14T20:27:04.706Z,17.70
2022-09-14T20:29:51.233Z,17.70
2022-09-14T20:32:37.436Z,17.70
2022-09-14T20:35:23.862Z,17.70
2022-09-14T20:38:09.933Z,17.60
2022-09-14T20:40:58.362Z,17.50
2022-09-14T20:43:46.591Z,17.40
2022-09-14T20:46:39.706Z,17.30
2022-09-14T20:49:26.643Z,17.40
2022-09-14T20:52:13.017Z,17.50
2022-09-14T20:54:59.277Z,17.50
2022-09-14T20:57:45.466Z,17.40
2022-09-14T21:00:31.597Z,17.40
2022-09-14T21:03:17.645Z,17.30
2022-09-14T21:06:05.301Z,17.20
2022-09-14T21:08:54.251Z,17.10
2022-09-14T21:11:41.882Z,17.10
2022-09-14T21:14:28.572Z,17.20
2022-09-14T21:17:14.593Z,17.30
2022-09-14T21:20:00.841Z,17.40
2022-09-14T21:22:47.128Z,17.50
2022-09-14T21:25:34.232Z,17.60
2022-09-14T21:28:20.163Z,17.60
2022-09-14T21:31:07.535Z,17.50
2022-09-14T21:33:55.517Z,17.30
2022-09-14T21:36:44.785Z,17.20
2022-09-14T21:39:31.078Z,17.10
2022-09-14T21:42:16.923Z,17.10
2022-09-14T21:45:02.854Z,17.20
2022-09-14T21:47:49.839Z,17.20
2022-09-14T21:50:35.996Z,17.30
2022-09-14T21:53:21.995Z,17.30
2022-09-14T21:56:07.886Z,17.30
2022-09-14T21:58:56.711Z,17.30
2022-09-14T22:01:43.217Z,17.40
2022-09-14T22:04:29.535Z,17.40
2022-09-14T22:07:15.493Z,17.40
2022-09-14T22:10:01.505Z,17.40
2022-09-14T22:12:48.542Z,17.50
2022-09-14T22:15:34.744Z,17.50
2022-09-14T22:18:20.685Z,17.50
2022-09-14T22:21:07.901Z,17.60
2022-09-14T22:23:59.780Z,17.60
2022-09-14T22:26:46.559Z,17.60
2022-09-14T22:29:32.474Z,17.60
2022-09-14T22:32:21.040Z,17.70
2022-09-14T22:35:07.335Z,17.70
2022-09-14T22:37:53.655Z,17.80
2022-09-14T22:40:39.582Z,17.80
2022-09-14T22:43:26.482Z,17.80
2022-09-14T22:46:12.866Z,17.80
2022-09-14T22:48:59.226Z,17.80
2022-09-14T22:51:45.289Z,17.80
2022-09-14T22:54:31.207Z,17.80
2022-09-14T22:57:17.222Z,17.80
2022-09-14T23:00:04.390Z,17.80
2022-09-14T23:02:50.584Z,17.80
2022-09-14T23:05:37.779Z,17.80
2022-09-14T23:08:23.889Z,17.80
2022-09-14T23:11:11.959Z,17.80
2022-09-14T23:13:58.838Z,17.90
2022-09-14T23:16:45.676Z,17.90
2022-09-14T23:19:31.701Z,17.90
2022-09-14T23:22:17.714Z,17.90
2022-09-14T23:25:04.460Z,17.90
2022-09-14T23:27:50.745Z,17.90
2022-09-14T23:30:37.295Z,17.90
2022-09-14T23:33:23.680Z,18.00
2022-09-14T23:36:09.561Z,18.00
2022-09-14T23:38:55.958Z,17.90
2022-09-14T23:41:41.781Z,17.90
2022-09-14T23:44:27.938Z,17.90
2022-09-14T23:47:14.132Z,17.90
2022-09-14T23:50:00.066Z,17.90
2022-09-14T23:52:46.498Z,18.00
2022-09-14T23:55:32.828Z,18.00
2022-09-14T23:58:18.890Z,18.00
